createdAt,value
2023-05-13T00:01:38.691Z,99489.78
2023-05-13T00:04:07.561Z,99496.34
2023-05-13T00:06:35.298Z,99496.88
2023-05-13T00:09:03.318Z,99503.69
2023-05-13T00:11:30.970Z,99489.50
2023-05-13T00:13:58.346Z,99493.38
2023-05-13T00:16:27.785Z,99501.03
2023-05-13T00:18:56.380Z,99494.47
2023-05-13T00:21:23.921Z,99492.91
2023-05-13T00:23:51.438Z,99494.78
2023-05-13T00:26:19.167Z,99492.78
2023-05-13T00:28:47.421Z,99492.91
2023-05-13T00:31:15.819Z,99489.03
2023-05-13T00:33:43.515Z,99496.47
2023-05-13T00:36:12.458Z,99502.62
2023-05-13T00:38:39.976Z,99487.12
2023-05-13T00:41:08.380Z,99495.59
2023-05-13T00:43:35.814Z,99498.09
2023-05-13T00:46:03.368Z,99499.25
2023-05-13T00:48:31.207Z,99492.19
2023-05-13T00:50:59.480Z,99503.97
2023-05-13T00:53:26.889Z,99496.22
2023-05-13T00:55:54.808Z,99496.66
2023-05-13T00:58:22.154Z,99502.44
2023-05-13T01:01:05.699Z,99506.37
2023-05-13T01:03:46.479Z,99509.41
2023-05-13T01:06:17.167Z,99502.50
2023-05-13T01:08:58.483Z,99506.75
2023-05-13T01:11:32.794Z,99504.44
2023-05-13T01:14:10.514Z,99511.75
2023-05-13T01:16:50.728Z,99507.00
2023-05-13T01:19:32.480Z,99507.16
2023-05-13T01:21:59.859Z,99511.75
2023-05-13T01:24:27.641Z,99511.00
2023-05-13T01:26:55.582Z,99512.00
2023-05-13T01:29:22.987Z,99516.25
2023-05-13T01:31:51.212Z,99510.31
2023-05-13T01:34:20.871Z,99521.09
2023-05-13T01:36:48.691Z,99513.25
2023-05-13T01:39:18.541Z,99506.13
2023-05-13T01:41:46.222Z,99508.50
2023-05-13T01:44:13.670Z,99506.63
2023-05-13T01:46:43.890Z,99518.00
2023-05-13T01:49:11.371Z,99512.47
2023-05-13T01:51:38.818Z,99513.47
2023-05-13T01:54:06.522Z,99512.25
2023-05-13T01:56:35.380Z,99514.75
2023-05-13T01:59:03.287Z,99508.81
2023-05-13T02:01:31.072Z,99513.59
2023-05-13T02:04:00.041Z,99521.47
2023-05-13T02:06:28.204Z,99524.56
2023-05-13T02:08:55.807Z,99515.38
2023-05-13T02:11:23.815Z,99527.91
2023-05-13T02:13:51.309Z,99516.53
2023-05-13T02:16:20.669Z,99528.97
2023-05-13T02:18:48.450Z,99516.78
2023-05-13T02:21:16.138Z,99516.28
2023-05-13T02:23:44.842Z,99527.97
2023-05-13T02:26:12.594Z,99522.09
2023-05-13T02:28:40.326Z,99519.16
2023-05-13T02:31:08.056Z,99522.25
2023-05-13T02:33:35.817Z,99521.81
2023-05-13T02:36:03.297Z,99525.00
2023-05-13T02:38:31.248Z,99518.25
2023-05-13T02:40:59.258Z,99517.75
2023-05-13T02:43:27.591Z,99522.84
2023-05-13T02:45:55.678Z,99520.34
2023-05-13T02:48:23.158Z,99529.81
2023-05-13T02:50:50.853Z,99521.44
2023-05-13T02:53:18.496Z,99530.44
2023-05-13T02:55:46.470Z,99524.28
2023-05-13T02:58:15.405Z,99532.41
2023-05-13T03:00:43.182Z,99523.66
2023-05-13T03:03:10.860Z,99527.59
2023-05-13T03:05:38.359Z,99527.72
2023-05-13T03:08:06.121Z,99534.94
2023-05-13T03:10:33.574Z,99530.41
2023-05-13T03:13:01.415Z,99534.72
2023-05-13T03:15:30.007Z,99531.00
2023-05-13T03:17:57.958Z,99531.16
2023-05-13T03:20:25.696Z,99536.50
2023-05-13T03:22:53.478Z,99545.91
2023-05-13T03:25:20.878Z,99539.88
2023-05-13T03:27:48.633Z,99540.91
2023-05-13T03:30:16.821Z,99542.94
2023-05-13T03:32:44.995Z,99537.81
2023-05-13T03:35:12.875Z,99545.00
2023-05-13T03:37:40.582Z,99548.72
2023-05-13T03:40:08.637Z,99554.62
2023-05-13T03:42:36.245Z,99548.38
2023-05-13T03:45:04.564Z,99550.34
2023-05-13T03:47:32.714Z,99562.91
2023-05-13T03:50:00.994Z,99555.97
2023-05-13T03:52:30.574Z,99556.09
2023-05-13T03:54:57.988Z,99555.59
2023-05-13T03:57:25.637Z,99556.09
2023-05-13T03:59:53.299Z,99567.22
2023-05-13T04:02:21.863Z,99559.25
2023-05-13T04:04:49.810Z,99569.28
2023-05-13T04:07:17.262Z,99569.56
2023-05-13T04:09:44.624Z,99565.75
2023-05-13T04:12:12.393Z,99573.47
2023-05-13T04:14:40.193Z,99575.16
2023-05-13T04:17:07.732Z,99565.16
2023-05-13T04:19:35.433Z,99575.00
2023-05-13T04:22:02.820Z,99577.28
2023-05-13T04:24:30.307Z,99574.31
2023-05-13T04:27:00.026Z,99578.38
2023-05-13T04:29:29.452Z,99582.16
2023-05-13T04:31:57.171Z,99578.91
2023-05-13T04:34:24.950Z,99586.19
2023-05-13T04:36:52.815Z,99580.63
2023-05-13T04:39:20.359Z,99572.34
2023-05-13T04:41:47.994Z,99578.09
2023-05-13T04:44:15.382Z,99592.62
2023-05-13T04:46:44.908Z,99589.59
2023-05-13T04:49:12.720Z,99588.78
2023-05-13T04:51:40.355Z,99584.88
2023-05-13T04:54:08.485Z,99593.19
2023-05-13T04:56:36.171Z,99588.97
2023-05-13T04:59:03.604Z,99597.75
2023-05-13T05:01:31.184Z,99610.00
2023-05-13T05:04:02.674Z,99597.31
2023-05-13T05:06:31.327Z,99606.72
2023-05-13T05:08:59.278Z,99600.91
2023-05-13T05:11:26.686Z,99608.91
2023-05-13T05:13:54.329Z,99609.06
2023-05-13T05:16:22.110Z,99607.72
2023-05-13T05:18:49.628Z,99613.03
2023-05-13T05:21:18.712Z,99608.47
2023-05-13T05:23:46.862Z,99609.78
2023-05-13T05:26:14.277Z,99606.38
2023-05-13T05:28:43.127Z,99609.38
2023-05-13T05:31:10.969Z,99614.66
2023-05-13T05:33:40.010Z,99620.69
2023-05-13T05:36:07.767Z,99613.09
2023-05-13T05:38:35.991Z,99617.84
2023-05-13T05:41:04.842Z,99614.56
2023-05-13T05:43:32.285Z,99623.22
2023-05-13T05:46:00.045Z,99617.19
2023-05-13T05:48:27.497Z,99612.78
2023-05-13T05:50:56.341Z,99604.97
2023-05-13T05:53:24.346Z,99603.25
2023-05-13T05:55:53.273Z,99620.31
2023-05-13T05:58:21.029Z,99618.38
2023-05-13T06:00:49.297Z,99626.31
2023-05-13T06:03:17.712Z,99624.66
2023-05-13T06:05:45.448Z,99625.19
2023-05-13T06:08:12.859Z,99629.16
2023-05-13T06:10:40.813Z,99632.41
2023-05-13T06:13:08.149Z,99622.25
2023-05-13T06:15:36.556Z,99629.97
2023-05-13T06:18:06.108Z,99629.97
2023-05-13T06:20:33.697Z,99624.62
2023-05-13T06:23:01.072Z,99628.91
2023-05-13T06:25:28.740Z,99631.81
2023-05-13T06:27:56.256Z,99636.69
2023-05-13T06:30:23.883Z,99630.19
2023-05-13T06:33:01.029Z,99631.19
2023-05-13T06:35:30.497Z,99633.00
2023-05-13T06:37:58.756Z,99633.06
2023-05-13T06:40:26.400Z,99634.09
2023-05-13T06:42:53.900Z,99641.34
2023-05-13T06:45:23.471Z,99641.84
2023-05-13T06:47:51.751Z,99638.62
2023-05-13T06:50:19.895Z,99636.56
2023-05-13T06:52:47.766Z,99634.97
2023-05-13T06:55:16.680Z,99636.69
2023-05-13T06:57:46.789Z,99631.75
2023-05-13T07:00:15.322Z,99631.66
2023-05-13T07:02:42.798Z,99634.09
2023-05-13T07:05:11.695Z,99628.34
2023-05-13T07:07:39.387Z,99633.16
2023-05-13T07:10:07.124Z,99623.59
2023-05-13T07:12:34.495Z,99631.66
2023-05-13T07:15:02.690Z,99625.66
2023-05-13T07:17:31.406Z,99622.22
2023-05-13T07:19:59.298Z,99626.41
2023-05-13T07:22:27.549Z,99629.75
2023-05-13T07:24:55.226Z,99635.97
2023-05-13T07:27:22.884Z,99625.88
2023-05-13T07:29:50.552Z,99635.09
2023-05-13T07:32:18.046Z,99638.50
2023-05-13T07:34:45.448Z,99635.53
2023-05-13T07:37:13.096Z,99642.63
2023-05-13T07:39:40.649Z,99644.38
2023-05-13T07:42:08.115Z,99639.56
2023-05-13T07:44:35.770Z,99633.88
2023-05-13T07:47:03.248Z,99651.19
2023-05-13T07:49:30.660Z,99638.50
2023-05-13T07:51:58.408Z,99654.34
2023-05-13T07:54:25.870Z,99644.91
2023-05-13T07:56:53.400Z,99651.88
2023-05-13T07:59:21.079Z,99650.75
2023-05-13T08:01:48.528Z,99652.38
2023-05-13T08:04:16.754Z,99653.25
2023-05-13T08:06:44.219Z,99650.16
2023-05-13T08:09:12.314Z,99652.84
2023-05-13T08:11:40.246Z,99668.63
2023-05-13T08:14:07.704Z,99663.28
2023-05-13T08:16:38.895Z,99667.44
2023-05-13T08:19:06.703Z,99683.06
2023-05-13T08:21:34.137Z,99679.25
2023-05-13T08:24:01.589Z,99664.72
2023-05-13T08:26:29.199Z,99668.44
2023-05-13T08:28:58.157Z,99672.13
2023-05-13T08:31:25.693Z,99683.47
2023-05-13T08:33:54.027Z,99686.94
2023-05-13T08:36:25.941Z,99685.03
2023-05-13T08:38:53.656Z,99686.72
2023-05-13T08:41:22.845Z,99686.03
2023-05-13T08:43:51.966Z,99686.63
2023-05-13T08:46:21.131Z,99684.59
2023-05-13T08:48:49.140Z,99687.06
2023-05-13T08:51:16.787Z,99685.94
2023-05-13T08:53:44.429Z,99687.09
2023-05-13T08:56:12.487Z,99689.16
2023-05-13T08:58:39.898Z,99690.13
2023-05-13T09:01:07.874Z,99676.19
2023-05-13T09:03:36.332Z,99682.41
2023-05-13T09:06:04.266Z,99685.12
2023-05-13T09:08:32.766Z,99679.22
2023-05-13T09:11:00.896Z,99689.75
2023-05-13T09:13:28.322Z,99696.53
2023-05-13T09:15:56.097Z,99690.44
2023-05-13T09:18:30.768Z,99687.75
2023-05-13T09:20:58.528Z,99679.91
2023-05-13T09:23:27.005Z,99686.91
2023-05-13T09:25:54.418Z,99684.78
2023-05-13T09:28:23.613Z,99691.09
2023-05-13T09:30:55.646Z,99683.25
2023-05-13T09:33:30.318Z,99683.97
2023-05-13T09:35:57.735Z,99690.97
2023-05-13T09:38:26.177Z,99693.31
2023-05-13T09:40:57.764Z,99693.75
2023-05-13T09:43:27.466Z,99681.00
2023-05-13T09:45:55.902Z,99695.44
2023-05-13T09:48:25.971Z,99690.50
2023-05-13T09:50:55.047Z,99688.06
2023-05-13T09:53:22.509Z,99675.13
2023-05-13T09:55:52.077Z,99678.53
2023-05-13T09:58:20.477Z,99682.03
2023-05-13T10:00:48.250Z,99680.28
2023-05-13T10:03:16.470Z,99682.63
2023-05-13T10:05:44.019Z,99681.34
2023-05-13T10:08:13.008Z,99682.53
2023-05-13T10:10:42.205Z,99677.56
2023-05-13T10:13:13.429Z,99681.06
2023-05-13T10:15:45.244Z,99685.62
2023-05-13T10:18:13.268Z,99677.78
2023-05-13T10:20:42.172Z,99671.78
2023-05-13T10:23:10.458Z,99672.63
2023-05-13T10:25:38.233Z,99679.22
2023-05-13T10:28:06.760Z,99673.31
2023-05-13T10:30:35.923Z,99673.06
2023-05-13T10:33:04.154Z,99677.56
2023-05-13T10:35:38.625Z,99671.38
2023-05-13T10:38:11.339Z,99684.22
2023-05-13T10:40:57.834Z,99676.22
2023-05-13T10:43:29.416Z,99687.09
2023-05-13T10:46:08.233Z,99686.22
2023-05-13T10:49:02.129Z,99690.56
2023-05-13T10:51:29.946Z,99695.59
2023-05-13T10:54:00.515Z,99692.03
2023-05-13T10:56:28.617Z,99689.59
2023-05-13T10:59:04.477Z,99689.63
2023-05-13T11:01:36.116Z,99689.37
2023-05-13T11:04:05.463Z,99689.50
2023-05-13T11:06:37.677Z,99682.56
2023-05-13T11:09:16.109Z,99680.06
2023-05-13T11:11:47.842Z,99683.59
2023-05-13T11:14:23.162Z,99678.16
2023-05-13T11:16:55.457Z,99678.19
2023-05-13T11:19:28.582Z,99678.12
2023-05-13T11:21:59.725Z,99687.03
2023-05-13T11:24:27.461Z,99678.50
2023-05-13T11:26:56.740Z,99674.88
2023-05-13T11:29:31.584Z,99678.56
2023-05-13T11:32:01.095Z,99683.63
2023-05-13T11:34:29.301Z,99678.47
2023-05-13T11:37:03.864Z,99676.97
2023-05-13T11:39:32.519Z,99684.56
2023-05-13T11:42:01.886Z,99680.06
2023-05-13T11:44:29.517Z,99683.72
2023-05-13T11:46:57.850Z,99690.75
2023-05-13T11:49:41.312Z,99690.72
2023-05-13T11:52:11.887Z,99701.06
2023-05-13T11:54:53.451Z,99696.63
2023-05-13T11:57:26.126Z,99694.84
2023-05-13T11:59:58.252Z,99695.84
2023-05-13T12:02:37.501Z,99698.28
2023-05-13T12:05:07.225Z,99695.87
2023-05-13T12:07:35.376Z,99693.50
2023-05-13T12:10:04.464Z,99688.37
2023-05-13T12:12:40.731Z,99684.88
2023-05-13T12:15:13.800Z,99691.03
2023-05-13T12:17:41.910Z,99690.06
2023-05-13T12:20:11.482Z,99694.41
2023-05-13T12:22:45.248Z,99694.44
2023-05-13T12:25:43.850Z,99701.38
2023-05-13T12:28:18.941Z,99704.81
2023-05-13T12:30:58.238Z,99704.78
2023-05-13T12:33:28.232Z,99697.88
2023-05-13T12:36:15.097Z,99697.03
2023-05-13T12:38:56.331Z,99702.16
2023-05-13T12:41:26.722Z,99697.63
2023-05-13T12:43:58.805Z,99695.97
2023-05-13T12:46:26.978Z,99697.84
2023-05-13T12:48:59.348Z,99698.72
2023-05-13T12:51:27.552Z,99698.78
2023-05-13T12:53:55.743Z,99693.66
2023-05-13T12:56:23.748Z,99700.56
2023-05-13T12:58:53.359Z,99697.00
2023-05-13T13:01:21.286Z,99710.03
2023-05-13T13:03:49.106Z,99702.19
2023-05-13T13:06:17.912Z,99705.69
2023-05-13T13:08:45.785Z,99697.91
2023-05-13T13:11:18.871Z,99696.94
2023-05-13T13:13:47.222Z,99709.97
2023-05-13T13:16:14.942Z,99698.00
2023-05-13T13:18:42.839Z,99687.66
2023-05-13T13:21:13.365Z,99693.66
2023-05-13T13:23:43.866Z,99693.69
2023-05-13T13:26:11.610Z,99683.28
2023-05-13T13:28:39.297Z,99685.00
2023-05-13T13:31:07.734Z,99687.69
2023-05-13T13:33:35.137Z,99686.78
2023-05-13T13:36:03.143Z,99691.06
2023-05-13T13:38:30.522Z,99681.53
2023-05-13T13:40:57.872Z,99683.19
2023-05-13T13:43:25.486Z,99693.63
2023-05-13T13:45:53.795Z,99697.09
2023-05-13T13:48:21.598Z,99701.41
2023-05-13T13:50:50.636Z,99697.91
2023-05-13T13:53:19.604Z,99693.59
2023-05-13T13:55:47.028Z,99683.97
2023-05-13T13:58:15.749Z,99680.59
2023-05-13T14:00:43.202Z,99682.31
2023-05-13T14:03:10.954Z,99684.06
2023-05-13T14:05:38.430Z,99677.94
2023-05-13T14:08:06.409Z,99676.31
2023-05-13T14:10:34.118Z,99677.19
2023-05-13T14:13:01.624Z,99676.41
2023-05-13T14:15:30.728Z,99671.09
2023-05-13T14:17:58.622Z,99666.78
2023-05-13T14:20:28.789Z,99672.00
2023-05-13T14:22:56.583Z,99662.38
2023-05-13T14:25:24.383Z,99663.22
2023-05-13T14:27:51.817Z,99662.41
2023-05-13T14:30:19.383Z,99658.09
2023-05-13T14:32:47.407Z,99663.28
2023-05-13T14:35:14.868Z,99655.44
2023-05-13T14:37:42.664Z,99653.69
2023-05-13T14:40:10.531Z,99658.06
2023-05-13T14:42:37.957Z,99654.50
2023-05-13T14:45:06.351Z,99656.28
2023-05-13T14:47:34.049Z,99642.37
2023-05-13T14:50:01.473Z,99655.44
2023-05-13T14:52:29.026Z,99645.84
2023-05-13T14:54:56.804Z,99652.81
2023-05-13T14:57:24.276Z,99649.34
2023-05-13T14:59:51.694Z,99638.03
2023-05-13T15:02:19.412Z,99637.13
2023-05-13T15:04:50.865Z,99651.94
2023-05-13T15:07:24.810Z,99649.34
2023-05-13T15:09:52.330Z,99657.16
2023-05-13T15:12:19.720Z,99655.44
2023-05-13T15:14:54.598Z,99648.44
2023-05-13T15:17:22.135Z,99648.44
2023-05-13T15:19:49.916Z,99646.78
2023-05-13T15:22:18.156Z,99654.56
2023-05-13T15:24:45.571Z,99655.41
2023-05-13T15:27:14.200Z,99649.34
2023-05-13T15:29:41.631Z,99645.81
2023-05-13T15:32:09.019Z,99650.19
2023-05-13T15:34:36.708Z,99657.19
2023-05-13T15:37:04.414Z,99665.03
2023-05-13T15:39:31.896Z,99659.78
2023-05-13T15:41:59.642Z,99671.91
2023-05-13T15:44:27.223Z,99656.25
2023-05-13T15:46:54.702Z,99658.03
2023-05-13T15:49:22.905Z,99664.97
2023-05-13T15:51:50.719Z,99661.53
2023-05-13T15:54:18.350Z,99658.03
2023-05-13T15:56:46.125Z,99656.34
2023-05-13T15:59:13.606Z,99659.78
2023-05-13T16:01:41.823Z,99664.16
2023-05-13T16:04:09.611Z,99658.94
2023-05-13T16:06:37.057Z,99657.19
2023-05-13T16:09:04.545Z,99664.19
2023-05-13T16:11:32.338Z,99659.81
2023-05-13T16:13:59.744Z,99659.84
2023-05-13T16:16:27.301Z,99664.09
2023-05-13T16:18:55.143Z,99665.00
2023-05-13T16:21:22.660Z,99663.28
2023-05-13T16:23:51.052Z,99651.97
2023-05-13T16:26:18.758Z,99651.06
2023-05-13T16:28:46.213Z,99651.13
2023-05-13T16:31:13.874Z,99648.50
2023-05-13T16:33:41.622Z,99654.53
2023-05-13T16:36:11.763Z,99649.34
2023-05-13T16:38:41.374Z,99643.25
2023-05-13T16:41:09.208Z,99644.84
2023-05-13T16:43:36.606Z,99646.69
2023-05-13T16:46:04.075Z,99646.66
2023-05-13T16:48:31.761Z,99650.19
2023-05-13T16:50:59.208Z,99644.06
2023-05-13T16:53:26.684Z,99637.09
2023-05-13T16:55:54.370Z,99637.13
2023-05-13T16:58:22.152Z,99633.66
2023-05-13T17:00:49.695Z,99630.19
2023-05-13T17:03:17.605Z,99626.66
2023-05-13T17:05:45.202Z,99636.28
2023-05-13T17:08:12.608Z,99627.50
2023-05-13T17:10:40.497Z,99633.69
2023-05-13T17:13:08.157Z,99629.31
2023-05-13T17:15:35.818Z,99642.37
2023-05-13T17:18:03.856Z,99647.59
2023-05-13T17:20:31.374Z,99645.84
2023-05-13T17:22:58.753Z,99638.78
2023-05-13T17:25:26.552Z,99644.06
2023-05-13T17:27:54.151Z,99633.66
2023-05-13T17:30:23.022Z,99628.41
2023-05-13T17:32:50.867Z,99624.03
2023-05-13T17:35:18.354Z,99619.66
2023-05-13T17:37:46.187Z,99611.81
2023-05-13T17:40:13.927Z,99614.44
2023-05-13T17:42:41.318Z,99626.47
2023-05-13T17:45:09.193Z,99630.84
2023-05-13T17:47:37.036Z,99631.75
2023-05-13T17:50:04.830Z,99630.97
2023-05-13T17:52:32.266Z,99631.84
2023-05-13T17:55:00.346Z,99640.53
2023-05-13T17:57:27.979Z,99634.47
2023-05-13T17:59:55.475Z,99631.84
2023-05-13T18:02:24.132Z,99636.94
2023-05-13T18:04:52.682Z,99636.16
2023-05-13T18:07:20.028Z,99633.59
2023-05-13T18:09:49.311Z,99630.16
2023-05-13T18:12:18.050Z,99624.72
2023-05-13T18:14:45.470Z,99622.97
2023-05-13T18:17:12.812Z,99629.63
2023-05-13T18:19:40.535Z,99626.16
2023-05-13T18:22:11.060Z,99631.53
2023-05-13T18:24:38.957Z,99630.78
2023-05-13T18:27:07.379Z,99629.00
2023-05-13T18:29:35.435Z,99648.75
2023-05-13T18:32:03.214Z,99645.38
2023-05-13T18:34:31.244Z,99642.94
2023-05-13T18:37:01.625Z,99648.31
2023-05-13T18:39:29.041Z,99651.72
2023-05-13T18:41:56.682Z,99655.31
2023-05-13T18:44:24.123Z,99648.38
2023-05-13T18:46:52.256Z,99652.75
2023-05-13T18:49:19.883Z,99652.72
2023-05-13T18:51:47.389Z,99660.44
2023-05-13T18:54:14.839Z,99658.78
2023-05-13T18:56:43.203Z,99664.91
2023-05-13T18:59:10.586Z,99657.97
2023-05-13T19:01:38.018Z,99656.13
2023-05-13T19:04:06.084Z,99664.78
2023-05-13T19:06:36.278Z,99668.28
2023-05-13T19:09:03.939Z,99664.00
2023-05-13T19:11:32.288Z,99662.16
2023-05-13T19:13:59.805Z,99668.28
2023-05-13T19:16:27.273Z,99663.06
2023-05-13T19:18:57.846Z,99673.37
2023-05-13T19:21:25.484Z,99663.81
2023-05-13T19:23:52.978Z,99670.53
2023-05-13T19:26:20.717Z,99664.75
2023-05-13T19:28:48.919Z,99662.22
2023-05-13T19:31:16.444Z,99663.53
2023-05-13T19:33:46.074Z,99660.13
2023-05-13T19:36:14.013Z,99669.78
2023-05-13T19:38:41.469Z,99669.81
2023-05-13T19:41:09.136Z,99659.56
2023-05-13T19:43:37.192Z,99668.97
2023-05-13T19:46:04.946Z,99667.31
2023-05-13T19:48:32.803Z,99669.78
2023-05-13T19:51:00.381Z,99663.03
2023-05-13T19:53:27.820Z,99665.37
2023-05-13T19:55:56.114Z,99673.28
2023-05-13T19:58:23.684Z,99673.87
2023-05-13T20:00:51.311Z,99676.47
2023-05-13T20:03:19.081Z,99674.50
2023-05-13T20:05:48.203Z,99671.06
2023-05-13T20:08:15.913Z,99673.00
2023-05-13T20:10:43.767Z,99664.13
2023-05-13T20:13:11.268Z,99664.16
2023-05-13T20:15:38.733Z,99659.66
2023-05-13T20:18:06.692Z,99663.97
2023-05-13T20:20:34.339Z,99662.66
2023-05-13T20:23:02.141Z,99667.06
2023-05-13T20:25:29.831Z,99668.50
2023-05-13T20:27:57.795Z,99675.63
2023-05-13T20:30:25.483Z,99683.44
2023-05-13T20:32:53.453Z,99674.56
2023-05-13T20:35:21.079Z,99672.81
2023-05-13T20:37:48.452Z,99659.91
2023-05-13T20:40:16.813Z,99653.94
2023-05-13T20:42:44.581Z,99652.03
2023-05-13T20:45:12.972Z,99645.63
2023-05-13T20:47:40.939Z,99646.72
2023-05-13T20:50:08.797Z,99649.50
2023-05-13T20:52:36.357Z,99640.09
2023-05-13T20:55:04.942Z,99648.34
2023-05-13T20:57:32.365Z,99648.34
2023-05-13T20:59:59.952Z,99648.34
2023-05-13T21:02:27.943Z,99648.94
2023-05-13T21:04:55.773Z,99649.97
2023-05-13T21:07:23.157Z,99643.31
2023-05-13T21:09:51.386Z,99650.69
2023-05-13T21:12:18.866Z,99641.03
2023-05-13T21:14:46.604Z,99644.50
2023-05-13T21:17:14.342Z,99645.69
2023-05-13T21:19:41.864Z,99642.22
2023-05-13T21:22:09.431Z,99638.50
2023-05-13T21:24:37.159Z,99635.41
2023-05-13T21:27:04.772Z,99638.72
2023-05-13T21:29:33.306Z,99646.69
2023-05-13T21:32:00.974Z,99635.19
2023-05-13T21:34:30.955Z,99635.00
2023-05-13T21:36:58.473Z,99638.50
2023-05-13T21:39:26.145Z,99634.47
2023-05-13T21:41:53.960Z,99634.56
2023-05-13T21:44:21.643Z,99629.84
2023-05-13T21:46:49.329Z,99620.87
2023-05-13T21:49:16.811Z,99621.03
2023-05-13T21:51:44.371Z,99628.50
2023-05-13T21:54:12.210Z,99627.56
2023-05-13T21:56:39.703Z,99618.06
2023-05-13T21:59:07.140Z,99609.44
2023-05-13T22:01:34.875Z,99603.69
2023-05-13T22:04:02.571Z,99605.44
2023-05-13T22:06:29.965Z,99601.75
2023-05-13T22:08:57.452Z,99607.63
2023-05-13T22:11:25.545Z,99596.44
2023-05-13T22:13:52.935Z,99599.81
2023-05-13T22:16:20.863Z,99604.94
2023-05-13T22:18:49.630Z,99612.78
2023-05-13T22:21:17.499Z,99600.69
2023-05-13T22:23:45.117Z,99608.44
2023-05-13T22:26:12.927Z,99606.44
2023-05-13T22:28:40.574Z,99611.59
2023-05-13T22:31:08.406Z,99612.63
2023-05-13T22:33:36.043Z,99619.81
2023-05-13T22:36:03.575Z,99615.19
2023-05-13T22:38:30.990Z,99611.72
2023-05-13T22:40:58.661Z,99614.56
2023-05-13T22:43:26.075Z,99612.25
2023-05-13T22:45:53.502Z,99611.03
2023-05-13T22:48:21.406Z,99608.44
2023-05-13T22:50:49.011Z,99606.44
2023-05-13T22:53:18.216Z,99599.06
2023-05-13T22:55:46.070Z,99599.03
2023-05-13T22:58:13.488Z,99601.66
2023-05-13T23:00:40.947Z,99598.78
2023-05-13T23:03:08.706Z,99602.91
2023-05-13T23:05:36.192Z,99609.06
2023-05-13T23:08:03.696Z,99601.12
2023-05-13T23:10:31.378Z,99598.84
2023-05-13T23:12:58.941Z,99597.22
2023-05-13T23:15:26.336Z,99597.00
2023-05-13T23:17:54.074Z,99592.09
2023-05-13T23:20:21.662Z,99598.91
2023-05-13T23:22:49.196Z,99592.22
2023-05-13T23:25:16.856Z,99593.78
2023-05-13T23:27:44.447Z,99590.41
2023-05-13T23:30:12.463Z,99586.97
2023-05-13T23:32:40.460Z,99591.25
2023-05-13T23:35:08.465Z,99587.84
2023-05-13T23:37:36.596Z,99588.81
2023-05-13T23:40:05.106Z,99586.81
2023-05-13T23:42:32.538Z,99581.69
2023-05-13T23:45:00.127Z,99587.50
2023-05-13T23:47:27.914Z,99579.53
2023-05-13T23:49:55.331Z,99580.66
2023-05-13T23:52:22.733Z,99578.50
2023-05-13T23:54:50.491Z,99577.47
2023-05-13T23:57:18.075Z,99571.69
2023-05-13T23:59:45.446Z,99569.25
